createdAt,value
2017-08-08T00:00:22.013Z,20.41
2017-08-08T00:01:31.234Z,20.42
2017-08-08T00:02:41.381Z,20.38
2017-08-08T00:03:51.092Z,20.31
2017-08-08T00:05:00.087Z,20.31
2017-08-08T00:06:09.069Z,20.32
2017-08-08T00:07:18.405Z,20.31
2017-08-08T00:08:27.890Z,20.26
2017-08-08T00:09:36.885Z,20.32
2017-08-08T00:10:46.434Z,20.2
2017-08-08T00:11:55.467Z,20.26
2017-08-08T00:13:04.468Z,20.24
2017-08-08T00:14:13.791Z,20.2
2017-08-08T00:15:22.768Z,20.24
2017-08-08T00:16:31.929Z,20.26
2017-08-08T00:17:41.020Z,20.16
2017-08-08T00:18:50.055Z,20.2
2017-08-08T00:19:59.021Z,20.14
2017-08-08T00:21:08.707Z,20.13
2017-08-08T00:22:17.663Z,20.21
2017-08-08T00:23:26.625Z,20.21
2017-08-08T00:24:35.788Z,20.16
2017-08-08T00:25:44.976Z,20.11
2017-08-08T00:26:54.047Z,20.08
2017-08-08T00:28:03.153Z,20.08
2017-08-08T00:29:12.498Z,20.05
2017-08-08T00:30:21.550Z,20.08
2017-08-08T00:31:30.691Z,20.16
2017-08-08T00:32:39.684Z,20.14
2017-08-08T00:33:48.649Z,20.08
2017-08-08T00:34:58.183Z,19.98
2017-08-08T00:36:07.424Z,20.01
2017-08-08T00:37:16.385Z,19.96
2017-08-08T00:38:25.498Z,20.13
2017-08-08T00:39:34.469Z,20.02
2017-08-08T00:40:43.672Z,20.08
2017-08-08T00:41:52.629Z,20.06
2017-08-08T00:43:01.786Z,20.01
2017-08-08T00:44:10.766Z,20.02
2017-08-08T00:45:19.950Z,19.92
2017-08-08T00:46:29.022Z,19.99
2017-08-08T00:47:38.085Z,19.92
2017-08-08T00:48:47.133Z,19.94
2017-08-08T00:49:56.179Z,19.98
2017-08-08T00:51:05.560Z,19.87
2017-08-08T00:52:14.520Z,19.84
2017-08-08T00:53:23.707Z,19.91
2017-08-08T00:54:32.995Z,19.91
2017-08-08T00:55:41.954Z,19.88
2017-08-08T00:56:50.920Z,19.84
2017-08-08T00:57:59.881Z,19.87
2017-08-08T00:59:08.832Z,19.87
2017-08-08T01:00:17.788Z,19.88
2017-08-08T01:01:26.747Z,19.91
2017-08-08T01:02:35.707Z,19.87
2017-08-08T01:03:44.666Z,19.87
2017-08-08T01:04:53.626Z,19.86
2017-08-08T01:06:02.587Z,19.78
2017-08-08T01:07:11.553Z,19.83
2017-08-08T01:08:20.508Z,19.76
2017-08-08T01:09:29.459Z,19.77
2017-08-08T01:10:38.412Z,19.74
2017-08-08T01:11:47.371Z,19.74
2017-08-08T01:12:56.329Z,19.8
2017-08-08T01:14:05.299Z,19.73
2017-08-08T01:15:14.257Z,19.77
2017-08-08T01:16:23.213Z,19.74
2017-08-08T01:17:32.183Z,19.71
2017-08-08T01:18:41.135Z,19.73
2017-08-08T01:19:50.101Z,19.71
2017-08-08T01:20:59.062Z,19.73
2017-08-08T01:22:08.029Z,19.66
2017-08-08T01:23:16.992Z,19.65
2017-08-08T01:24:25.958Z,19.66
2017-08-08T01:25:34.913Z,19.71
2017-08-08T01:26:43.877Z,19.66
2017-08-08T01:27:52.832Z,19.65
2017-08-08T01:29:01.784Z,19.69
2017-08-08T01:30:10.747Z,19.71
2017-08-08T01:31:19.711Z,19.71
2017-08-08T01:32:28.670Z,19.66
2017-08-08T01:33:37.626Z,19.69
2017-08-08T01:34:46.584Z,19.65
2017-08-08T01:35:55.547Z,19.62
2017-08-08T01:37:04.505Z,19.61
2017-08-08T01:38:13.467Z,19.66
2017-08-08T01:39:22.768Z,19.59
2017-08-08T01:40:31.732Z,19.68
2017-08-08T01:41:40.693Z,19.61
2017-08-08T01:42:49.652Z,19.61
2017-08-08T01:43:58.624Z,19.65
2017-08-08T01:45:07.595Z,19.61
2017-08-08T01:46:16.549Z,19.56
2017-08-08T01:47:25.504Z,19.63
2017-08-08T01:48:34.458Z,19.54
2017-08-08T01:49:43.420Z,19.55
2017-08-08T01:50:52.388Z,19.56
2017-08-08T01:52:01.356Z,19.5
2017-08-08T01:53:10.329Z,19.5
2017-08-08T01:54:19.283Z,19.47
2017-08-08T01:55:28.234Z,19.48
2017-08-08T01:56:37.524Z,19.58
2017-08-08T01:57:46.503Z,19.4
2017-08-08T01:58:55.462Z,19.43
2017-08-08T02:00:04.417Z,19.46
2017-08-08T02:01:13.389Z,19.46
2017-08-08T02:02:22.358Z,19.44
2017-08-08T02:03:31.642Z,19.41
2017-08-08T02:04:40.605Z,19.51
2017-08-08T02:05:49.573Z,19.4
2017-08-08T02:06:58.541Z,19.33
2017-08-08T02:08:07.504Z,19.37
2017-08-08T02:09:16.468Z,19.46
2017-08-08T02:10:25.439Z,19.36
2017-08-08T02:11:34.403Z,19.36
2017-08-08T02:12:43.359Z,19.39
2017-08-08T02:13:52.325Z,19.36
2017-08-08T02:15:01.288Z,19.41
2017-08-08T02:16:10.601Z,19.33
2017-08-08T02:17:19.564Z,19.33
2017-08-08T02:18:28.545Z,19.29
2017-08-08T02:19:37.617Z,19.28
2017-08-08T02:20:46.579Z,19.32
2017-08-08T02:21:55.528Z,19.26
2017-08-08T02:23:04.483Z,19.22
2017-08-08T02:24:13.448Z,19.28
2017-08-08T02:25:22.410Z,19.26
2017-08-08T02:26:31.702Z,19.18
2017-08-08T02:27:40.661Z,19.21
2017-08-08T02:28:49.615Z,19.16
2017-08-08T02:29:58.575Z,19.26
2017-08-08T02:31:07.532Z,19.23
2017-08-08T02:32:16.500Z,19.23
2017-08-08T02:33:25.463Z,19.16
2017-08-08T02:34:34.425Z,19.21
2017-08-08T02:35:43.385Z,19.14
2017-08-08T02:36:52.334Z,19.21
2017-08-08T02:38:01.287Z,19.18
2017-08-08T02:39:10.252Z,19.13
2017-08-08T02:40:19.224Z,19.18
2017-08-08T02:41:28.184Z,19.18
2017-08-08T02:42:37.156Z,19.1
2017-08-08T02:43:46.122Z,19.19
2017-08-08T02:44:55.074Z,19.13
2017-08-08T02:46:04.368Z,19.16
2017-08-08T02:47:13.342Z,19.13
2017-08-08T02:48:22.307Z,19.14
2017-08-08T02:49:31.276Z,19.08
2017-08-08T02:50:40.240Z,19.1
2017-08-08T02:51:49.212Z,19.16
2017-08-08T02:52:58.168Z,19.14
2017-08-08T02:54:07.450Z,19.07
2017-08-08T02:55:16.410Z,19.02
2017-08-08T02:56:25.364Z,19.06
2017-08-08T02:57:34.321Z,19
2017-08-08T02:58:43.280Z,19.02
2017-08-08T02:59:52.236Z,18.99
2017-08-08T03:01:01.193Z,19
2017-08-08T03:02:10.158Z,19.02
2017-08-08T03:03:19.125Z,19.04
2017-08-08T03:04:28.115Z,19
2017-08-08T03:05:37.402Z,18.95
2017-08-08T03:06:46.358Z,18.99
2017-08-08T03:07:55.315Z,18.99
2017-08-08T03:09:04.269Z,18.95
2017-08-08T03:10:13.225Z,18.98
2017-08-08T03:11:22.180Z,18.94
2017-08-08T03:12:31.148Z,18.95
2017-08-08T03:13:40.119Z,18.92
2017-08-08T03:14:49.078Z,18.95
2017-08-08T03:15:58.352Z,18.91
2017-08-08T03:17:07.315Z,18.92
2017-08-08T03:18:16.268Z,18.95
2017-08-08T03:19:25.228Z,18.95
2017-08-08T03:20:34.183Z,18.87
2017-08-08T03:21:43.172Z,18.85
2017-08-08T03:22:52.132Z,18.82
2017-08-08T03:24:01.090Z,18.91
2017-08-08T03:25:10.050Z,18.84
2017-08-08T03:26:19.017Z,18.84
2017-08-08T03:27:27.980Z,18.87
2017-08-08T03:28:36.935Z,18.82
2017-08-08T03:29:45.894Z,18.73
2017-08-08T03:30:54.860Z,18.82
2017-08-08T03:32:03.823Z,18.82
2017-08-08T03:33:12.785Z,18.82
2017-08-08T03:34:22.065Z,18.81
2017-08-08T03:35:31.017Z,18.76
2017-08-08T03:36:39.989Z,18.78
2017-08-08T03:37:48.948Z,18.76
2017-08-08T03:38:57.924Z,18.75
2017-08-08T03:40:06.894Z,18.76
2017-08-08T03:41:15.853Z,18.69
2017-08-08T03:42:24.808Z,18.75
2017-08-08T03:43:33.777Z,18.69
2017-08-08T03:44:42.736Z,18.67
2017-08-08T03:45:51.693Z,18.73
2017-08-08T03:47:00.644Z,18.67
2017-08-08T03:48:09.602Z,18.69
2017-08-08T03:49:18.570Z,18.66
2017-08-08T03:50:27.845Z,18.6
2017-08-08T03:51:36.816Z,18.7
2017-08-08T03:52:45.770Z,18.63
2017-08-08T03:53:54.730Z,18.66
2017-08-08T03:55:03.687Z,18.65
2017-08-08T03:56:12.659Z,18.66
2017-08-08T03:57:21.948Z,18.6
2017-08-08T03:58:31.230Z,18.67
2017-08-08T03:59:40.195Z,18.65
2017-08-08T04:00:49.159Z,18.6
2017-08-08T04:01:58.114Z,18.58
2017-08-08T04:03:07.065Z,18.69
2017-08-08T04:04:16.020Z,18.66
2017-08-08T04:05:24.978Z,18.58
2017-08-08T04:06:33.945Z,18.55
2017-08-08T04:07:42.902Z,18.6
2017-08-08T04:08:51.860Z,18.69
2017-08-08T04:10:00.823Z,18.57
2017-08-08T04:11:09.785Z,18.58
2017-08-08T04:12:18.742Z,18.66
2017-08-08T04:13:27.707Z,18.6
2017-08-08T04:14:36.661Z,18.69
2017-08-08T04:15:45.618Z,18.66
2017-08-08T04:16:54.904Z,18.63
2017-08-08T04:18:03.862Z,18.57
2017-08-08T04:19:12.826Z,18.63
2017-08-08T04:20:22.118Z,18.62
2017-08-08T04:21:31.078Z,18.62
2017-08-08T04:22:40.037Z,18.6
2017-08-08T04:23:48.988Z,18.62
2017-08-08T04:24:57.956Z,18.66
2017-08-08T04:26:06.911Z,18.62
2017-08-08T04:27:15.875Z,18.66
2017-08-08T04:28:24.857Z,18.58
2017-08-08T04:29:33.819Z,18.65
2017-08-08T04:30:42.776Z,18.66
2017-08-08T04:31:51.744Z,18.69
2017-08-08T04:33:00.703Z,18.65
2017-08-08T04:34:09.653Z,18.63
2017-08-08T04:35:18.606Z,18.66
2017-08-08T04:36:27.569Z,18.72
2017-08-08T04:37:36.531Z,18.72
2017-08-08T04:38:45.480Z,18.72
2017-08-08T04:39:54.439Z,18.69
2017-08-08T04:41:03.394Z,18.7
2017-08-08T04:42:12.350Z,18.72
2017-08-08T04:43:21.298Z,18.67
2017-08-08T04:44:30.259Z,18.7
2017-08-08T04:45:39.218Z,18.66
2017-08-08T04:46:48.173Z,18.66
2017-08-08T04:47:57.126Z,18.75
2017-08-08T04:49:06.413Z,18.63
2017-08-08T04:50:15.378Z,18.69
2017-08-08T04:51:24.328Z,18.73
2017-08-08T04:52:33.282Z,18.73
2017-08-08T04:53:42.240Z,18.75
2017-08-08T04:54:51.209Z,18.8
2017-08-08T04:56:00.494Z,18.8
2017-08-08T04:57:09.453Z,18.73
2017-08-08T04:58:18.408Z,18.76
2017-08-08T04:59:27.357Z,18.73
2017-08-08T05:00:36.308Z,18.78
2017-08-08T05:01:45.267Z,18.8
2017-08-08T05:02:54.228Z,18.75
2017-08-08T05:04:03.185Z,18.84
2017-08-08T05:05:12.138Z,18.85
2017-08-08T05:06:21.088Z,18.84
2017-08-08T05:07:30.050Z,18.81
2017-08-08T05:08:39.003Z,18.85
2017-08-08T05:09:47.960Z,18.87
2017-08-08T05:10:56.918Z,18.76
2017-08-08T05:12:05.878Z,18.85
2017-08-08T05:13:14.835Z,18.81
2017-08-08T05:14:23.791Z,18.9
2017-08-08T05:15:32.756Z,18.81
2017-08-08T05:16:41.726Z,18.87
2017-08-08T05:17:50.717Z,18.92
2017-08-08T05:18:59.679Z,19
2017-08-08T05:20:08.652Z,19.02
2017-08-08T05:21:17.610Z,18.98
2017-08-08T05:22:26.563Z,18.99
2017-08-08T05:23:35.850Z,18.92
2017-08-08T05:24:44.804Z,19
2017-08-08T05:25:53.757Z,19
2017-08-08T05:27:02.722Z,19.07
2017-08-08T05:28:11.676Z,18.94
2017-08-08T05:29:20.643Z,19.02
2017-08-08T05:30:29.614Z,19.06
2017-08-08T05:31:38.570Z,19.02
2017-08-08T05:32:47.858Z,19.04
2017-08-08T05:33:56.811Z,19.08
2017-08-08T05:35:05.773Z,19.04
2017-08-08T05:36:15.061Z,19.02
2017-08-08T05:37:24.345Z,19.02
2017-08-08T05:38:33.626Z,19.1
2017-08-08T05:39:42.578Z,19.08
2017-08-08T05:40:51.531Z,19.18
2017-08-08T05:42:00.503Z,19.07
2017-08-08T05:43:09.457Z,19.25
2017-08-08T05:44:18.417Z,19.1
2017-08-08T05:45:27.376Z,19.25
2017-08-08T05:46:36.370Z,19.1
2017-08-08T05:47:45.326Z,19.23
2017-08-08T05:48:54.287Z,19.18
2017-08-08T05:50:03.242Z,19.21
2017-08-08T05:51:12.193Z,19.18
2017-08-08T05:52:21.154Z,19.28
2017-08-08T05:53:30.111Z,19.31
2017-08-08T05:54:39.059Z,19.39
2017-08-08T05:55:48.018Z,19.43
2017-08-08T05:56:56.978Z,19.5
2017-08-08T05:58:05.931Z,19.47
2017-08-08T05:59:14.895Z,19.54
2017-08-08T06:00:23.849Z,19.58
2017-08-08T06:01:32.810Z,19.56
2017-08-08T06:02:41.770Z,19.63
2017-08-08T06:03:50.731Z,19.61
2017-08-08T06:04:59.683Z,19.61
2017-08-08T06:06:08.640Z,19.68
2017-08-08T06:07:17.628Z,19.63
2017-08-08T06:08:26.592Z,19.78
2017-08-08T06:09:35.553Z,19.74
2017-08-08T06:10:44.509Z,19.76
2017-08-08T06:11:53.459Z,19.77
2017-08-08T06:13:02.418Z,19.8
2017-08-08T06:14:11.726Z,19.8
2017-08-08T06:15:20.680Z,19.91
2017-08-08T06:16:29.639Z,19.88
2017-08-08T06:17:38.830Z,19.88
2017-08-08T06:18:47.783Z,19.95
2017-08-08T06:19:56.742Z,20.01
2017-08-08T06:21:06.224Z,20.03
2017-08-08T06:22:15.270Z,19.99
2017-08-08T06:23:24.241Z,20.06
2017-08-08T06:24:33.203Z,20.11
2017-08-08T06:25:42.191Z,20.1
2017-08-08T06:26:51.147Z,20.17
2017-08-08T06:28:00.107Z,20.16
2017-08-08T06:29:09.738Z,20.21
2017-08-08T06:30:18.735Z,20.17
2017-08-08T06:31:28.024Z,20.32
2017-08-08T06:32:36.981Z,20.31
2017-08-08T06:33:45.938Z,20.41
2017-08-08T06:34:54.897Z,20.42
2017-08-08T06:36:03.863Z,20.39
2017-08-08T06:37:12.982Z,20.52
2017-08-08T06:38:22.261Z,20.54
2017-08-08T06:39:31.229Z,20.48
2017-08-08T06:40:40.738Z,20.59
2017-08-08T06:41:49.922Z,20.61
2017-08-08T06:42:58.883Z,20.7
2017-08-08T06:44:08.033Z,20.74
2017-08-08T06:45:17.137Z,20.73
2017-08-08T06:46:26.421Z,20.73
2017-08-08T06:47:35.483Z,20.84
2017-08-08T06:48:44.534Z,20.77
2017-08-08T06:49:53.683Z,20.79
2017-08-08T06:51:02.784Z,20.84
2017-08-08T06:52:11.736Z,20.87
2017-08-08T06:53:20.791Z,20.91
2017-08-08T06:54:30.307Z,20.88
2017-08-08T06:55:39.540Z,20.89
2017-08-08T06:56:48.821Z,20.99
2017-08-08T06:57:57.939Z,20.92
2017-08-08T06:59:06.889Z,20.89
2017-08-08T07:00:15.854Z,20.95
2017-08-08T07:01:24.816Z,20.97
2017-08-08T07:02:33.781Z,21.04
2017-08-08T07:03:43.034Z,21.04
2017-08-08T07:04:52.161Z,21.03
2017-08-08T07:06:01.148Z,21.16
2017-08-08T07:07:10.343Z,21.17
2017-08-08T07:08:19.566Z,21.17
2017-08-08T07:09:28.524Z,21.16
2017-08-08T07:10:37.622Z,21.22
2017-08-08T07:11:46.656Z,21.19
2017-08-08T07:12:55.718Z,21.16
2017-08-08T07:14:04.762Z,21.24
2017-08-08T07:15:13.752Z,21.28
2017-08-08T07:16:22.717Z,21.35
2017-08-08T07:17:31.848Z,21.34
2017-08-08T07:18:40.814Z,21.35
2017-08-08T07:19:50.119Z,21.37
2017-08-08T07:20:59.289Z,21.4
2017-08-08T07:22:08.254Z,21.43
2017-08-08T07:23:17.347Z,21.43
2017-08-08T07:24:26.309Z,21.49
2017-08-08T07:25:35.275Z,21.46
2017-08-08T07:26:44.288Z,21.52
2017-08-08T07:27:53.259Z,21.52
2017-08-08T07:29:02.301Z,21.54
2017-08-08T07:30:11.268Z,21.5
2017-08-08T07:31:20.539Z,21.54
2017-08-08T07:32:29.926Z,21.58
2017-08-08T07:33:39.059Z,21.58
2017-08-08T07:34:48.025Z,21.65
2017-08-08T07:35:57.363Z,21.58
2017-08-08T07:37:06.422Z,21.59
2017-08-08T07:38:15.483Z,21.54
2017-08-08T07:39:24.444Z,21.5
2017-08-08T07:40:33.651Z,21.58
2017-08-08T07:41:42.871Z,21.58
2017-08-08T07:42:52.213Z,21.56
2017-08-08T07:44:01.245Z,21.65
2017-08-08T07:45:10.526Z,21.59
2017-08-08T07:46:19.553Z,21.64
2017-08-08T07:47:28.518Z,21.58
2017-08-08T07:48:37.519Z,21.67
2017-08-08T07:49:46.476Z,21.8
2017-08-08T07:50:55.523Z,21.83
2017-08-08T07:52:04.485Z,21.92
2017-08-08T07:53:13.453Z,21.98
2017-08-08T07:54:22.417Z,22.12
2017-08-08T07:55:31.514Z,22.18
2017-08-08T07:56:40.625Z,22.14
2017-08-08T07:57:49.771Z,22.14
2017-08-08T07:58:58.732Z,22.15
2017-08-08T08:00:07.694Z,22.17
2017-08-08T08:01:16.753Z,22.15
2017-08-08T08:02:25.900Z,22.22
2017-08-08T08:03:34.969Z,22.22
2017-08-08T08:04:44.018Z,22.2
2017-08-08T08:05:53.118Z,22.22
2017-08-08T08:07:02.222Z,22.28
2017-08-08T08:08:11.265Z,22.24
2017-08-08T08:09:20.381Z,22.35
2017-08-08T08:10:29.336Z,22.35
2017-08-08T08:11:38.499Z,22.35
2017-08-08T08:12:47.478Z,22.39
2017-08-08T08:13:56.661Z,22.33
2017-08-08T08:15:05.631Z,22.43
2017-08-08T08:16:14.666Z,22.46
2017-08-08T08:17:23.634Z,22.46
2017-08-08T08:18:32.671Z,22.47
2017-08-08T08:19:41.640Z,22.51
2017-08-08T08:20:50.687Z,22.49
2017-08-08T08:21:59.651Z,22.54
2017-08-08T08:23:08.706Z,22.54
2017-08-08T08:24:17.711Z,22.62
2017-08-08T08:25:26.777Z,22.67
2017-08-08T08:26:35.798Z,22.73
2017-08-08T08:27:44.869Z,22.77
2017-08-08T08:28:53.930Z,22.72
2017-08-08T08:30:02.962Z,22.76
2017-08-08T08:31:12.384Z,22.73
2017-08-08T08:32:21.865Z,22.83
2017-08-08T08:33:30.892Z,22.79
2017-08-08T08:34:39.968Z,22.83
2017-08-08T08:35:49.039Z,22.8
2017-08-08T08:36:58.148Z,22.82
2017-08-08T08:38:07.262Z,22.83
2017-08-08T08:39:16.347Z,22.83
2017-08-08T08:40:25.397Z,22.86
2017-08-08T08:41:34.453Z,22.86
2017-08-08T08:42:43.515Z,22.91
2017-08-08T08:43:52.795Z,22.92
2017-08-08T08:45:01.849Z,23
2017-08-08T08:46:10.809Z,22.97
2017-08-08T08:47:19.927Z,23.02
2017-08-08T08:48:28.905Z,23.04
2017-08-08T08:49:38.025Z,23.05
2017-08-08T08:50:47.380Z,23
2017-08-08T08:51:56.443Z,23.1
2017-08-08T08:53:05.427Z,23.07
2017-08-08T08:54:14.801Z,23.05
2017-08-08T08:55:23.918Z,23.12
2017-08-08T08:56:32.989Z,23.12
2017-08-08T08:57:42.066Z,23.15
2017-08-08T08:58:51.108Z,23.17
2017-08-08T09:00:00.182Z,23.13
2017-08-08T09:01:09.143Z,23.19
2017-08-08T09:02:18.266Z,23.25
2017-08-08T09:03:27.295Z,23.25
2017-08-08T09:04:36.425Z,23.28
2017-08-08T09:05:45.389Z,23.2
2017-08-08T09:06:54.406Z,23.22
2017-08-08T09:08:03.368Z,23.31
2017-08-08T09:09:12.337Z,23.33
2017-08-08T09:10:21.297Z,23.33
2017-08-08T09:11:30.579Z,23.38
2017-08-08T09:12:39.539Z,23.4
2017-08-08T09:13:48.497Z,23.38
2017-08-08T09:14:57.451Z,23.38
2017-08-08T09:16:06.411Z,23.46
2017-08-08T09:17:15.367Z,23.43
2017-08-08T09:18:24.644Z,23.47
2017-08-08T09:19:34.575Z,23.46
2017-08-08T09:20:43.721Z,23.55
2017-08-08T09:21:52.820Z,23.57
2017-08-08T09:23:02.163Z,23.6
2017-08-08T09:24:11.164Z,23.73
2017-08-08T09:25:20.133Z,23.58
2017-08-08T09:26:29.113Z,23.6
2017-08-08T09:27:38.092Z,23.6
2017-08-08T09:28:47.059Z,23.61
2017-08-08T09:29:56.017Z,23.61
2017-08-08T09:31:04.981Z,23.68
2017-08-08T09:32:14.063Z,23.75
2017-08-08T09:33:23.052Z,23.8
2017-08-08T09:34:32.020Z,23.88
2017-08-08T09:35:41.083Z,23.91
2017-08-08T09:36:50.039Z,23.88
2017-08-08T09:37:59.060Z,23.91
2017-08-08T09:39:08.131Z,23.91
2017-08-08T09:40:17.132Z,23.9
2017-08-08T09:41:26.100Z,23.91
2017-08-08T09:42:35.142Z,24
2017-08-08T09:43:44.102Z,23.98
2017-08-08T09:44:53.071Z,23.98
2017-08-08T09:46:02.493Z,24.05
2017-08-08T09:47:11.687Z,24.13
2017-08-08T09:48:20.715Z,24.1
2017-08-08T09:49:29.708Z,24
2017-08-08T09:50:38.669Z,23.98
2017-08-08T09:51:47.979Z,24.02
2017-08-08T09:52:57.030Z,24.12
2017-08-08T09:54:06.123Z,24.1
2017-08-08T09:55:15.136Z,24.16
2017-08-08T09:56:24.097Z,24.18
2017-08-08T09:57:33.058Z,24.16
2017-08-08T09:58:42.026Z,24.1
2017-08-08T09:59:50.985Z,24.13
2017-08-08T10:00:59.947Z,24.18
2017-08-08T10:02:08.909Z,24.22
2017-08-08T10:03:17.958Z,24.22
2017-08-08T10:04:26.923Z,24.22
2017-08-08T10:05:36.035Z,24.3
2017-08-08T10:06:45.000Z,24.32
2017-08-08T10:07:53.961Z,24.35
2017-08-08T10:09:02.931Z,24.3
2017-08-08T10:10:11.904Z,24.3
2017-08-08T10:11:20.886Z,24.4
2017-08-08T10:12:29.843Z,24.39
2017-08-08T10:13:39.133Z,24.35
2017-08-08T10:14:48.090Z,24.4
2017-08-08T10:15:57.053Z,24.43
2017-08-08T10:17:06.015Z,24.42
2017-08-08T10:18:14.991Z,24.5
2017-08-08T10:19:23.957Z,24.55
2017-08-08T10:20:32.931Z,24.52
2017-08-08T10:21:41.893Z,24.52
2017-08-08T10:22:50.849Z,24.58
2017-08-08T10:23:59.817Z,24.64
2017-08-08T10:25:09.102Z,24.58
2017-08-08T10:26:18.061Z,24.65
2017-08-08T10:27:27.022Z,24.53
2017-08-08T10:28:36.314Z,24.6
2017-08-08T10:29:45.286Z,24.57
2017-08-08T10:30:54.698Z,24.61
2017-08-08T10:32:04.752Z,24.55
2017-08-08T10:33:15.028Z,24.6
2017-08-08T10:34:25.673Z,24.67
2017-08-08T10:35:37.678Z,24.65
2017-08-08T10:36:51.163Z,24.65
2017-08-08T10:38:04.221Z,24.62
2017-08-08T10:39:18.174Z,24.76
2017-08-08T10:40:31.105Z,24.76
2017-08-08T10:41:43.493Z,24.77
2017-08-08T10:42:56.219Z,24.76
2017-08-08T10:44:09.185Z,24.87
2017-08-08T10:45:20.977Z,24.99
2017-08-08T10:46:33.855Z,24.95
2017-08-08T10:47:47.441Z,24.9
2017-08-08T10:49:00.358Z,24.88
2017-08-08T10:50:14.001Z,24.88
2017-08-08T10:51:26.195Z,24.91
2017-08-08T10:52:38.406Z,24.93
2017-08-08T10:53:51.618Z,24.93
2017-08-08T10:55:04.838Z,24.9
2017-08-08T10:56:17.703Z,24.88
2017-08-08T10:57:29.887Z,24.87
2017-08-08T10:58:40.191Z,24.9
2017-08-08T10:59:53.807Z,24.91
2017-08-08T11:01:05.650Z,24.93
2017-08-08T11:02:17.883Z,24.95
2017-08-08T11:03:30.946Z,24.91
2017-08-08T11:04:43.272Z,24.9
2017-08-08T11:05:56.209Z,24.95
2017-08-08T11:07:08.346Z,25.05
2017-08-08T11:08:19.626Z,25.02
2017-08-08T11:09:32.927Z,25.02
2017-08-08T11:10:44.409Z,25.05
2017-08-08T11:11:55.804Z,25.13
2017-08-08T11:13:08.213Z,25.14
2017-08-08T11:14:21.323Z,25.14
2017-08-08T11:15:33.462Z,25.15
2017-08-08T11:16:46.677Z,25.08
2017-08-08T11:18:00.139Z,25.2
2017-08-08T11:19:10.888Z,25.24
2017-08-08T11:20:22.475Z,25.21
2017-08-08T11:21:35.618Z,25.2
2017-08-08T11:22:47.505Z,25.23
2017-08-08T11:24:01.593Z,25.2
2017-08-08T11:25:14.934Z,25.21
2017-08-08T11:26:27.707Z,25.21
2017-08-08T11:27:40.535Z,25.18
2017-08-08T11:28:50.932Z,25.23
2017-08-08T11:30:02.729Z,25.21
2017-08-08T11:31:15.624Z,25.24
2017-08-08T11:32:27.917Z,25.27
2017-08-08T11:33:40.809Z,25.23
2017-08-08T11:34:53.114Z,25.23
2017-08-08T11:36:06.079Z,25.3
2017-08-08T11:37:18.497Z,25.3
2017-08-08T11:38:31.933Z,25.36
2017-08-08T11:39:44.131Z,25.33
2017-08-08T11:40:57.754Z,25.32
2017-08-08T11:42:11.276Z,25.42
2017-08-08T11:43:23.368Z,25.39
2017-08-08T11:44:36.035Z,25.45
2017-08-08T11:45:46.562Z,25.51
2017-08-08T11:46:56.140Z,25.55
2017-08-08T11:48:05.429Z,25.57
2017-08-08T11:49:15.363Z,25.57
2017-08-08T11:50:24.674Z,25.58
2017-08-08T11:51:35.040Z,25.57
2017-08-08T11:52:44.602Z,25.55
2017-08-08T11:53:55.084Z,25.57
2017-08-08T11:55:04.380Z,25.54
2017-08-08T11:56:14.549Z,25.6
2017-08-08T11:57:24.126Z,25.58
2017-08-08T11:58:33.350Z,25.62
2017-08-08T11:59:43.065Z,25.57
2017-08-08T12:00:52.613Z,25.62
2017-08-08T12:02:02.079Z,25.54
2017-08-08T12:03:11.540Z,25.54
2017-08-08T12:04:21.205Z,25.51
2017-08-08T12:05:30.961Z,25.55
2017-08-08T12:06:40.360Z,25.58
2017-08-08T12:07:51.409Z,25.72
2017-08-08T12:09:03.239Z,25.72
2017-08-08T12:10:12.681Z,25.64
2017-08-08T12:11:22.365Z,25.69
2017-08-08T12:12:31.463Z,25.75
2017-08-08T12:13:40.458Z,25.73
2017-08-08T12:14:49.461Z,25.79
2017-08-08T12:15:58.438Z,25.73
2017-08-08T12:17:07.423Z,25.85
2017-08-08T12:18:16.399Z,25.95
2017-08-08T12:19:25.395Z,25.91
2017-08-08T12:20:34.410Z,25.92
2017-08-08T12:21:43.391Z,25.95
2017-08-08T12:22:52.373Z,25.88
2017-08-08T12:24:01.380Z,25.85
2017-08-08T12:25:10.375Z,25.88
2017-08-08T12:26:19.360Z,25.87
2017-08-08T12:27:28.348Z,25.77
2017-08-08T12:28:37.343Z,25.82
2017-08-08T12:29:46.343Z,25.79
2017-08-08T12:30:55.326Z,25.8
2017-08-08T12:32:04.312Z,25.85
2017-08-08T12:33:13.305Z,25.7
2017-08-08T12:34:22.285Z,25.82
2017-08-08T12:35:31.270Z,25.82
2017-08-08T12:36:40.257Z,25.88
2017-08-08T12:37:49.247Z,25.77
2017-08-08T12:38:58.239Z,25.83
2017-08-08T12:40:07.225Z,25.9
2017-08-08T12:41:16.210Z,25.83
2017-08-08T12:42:25.193Z,25.87
2017-08-08T12:43:34.181Z,25.98
2017-08-08T12:44:43.165Z,25.92
2017-08-08T12:45:52.144Z,25.91
2017-08-08T12:47:01.137Z,25.92
2017-08-08T12:48:10.130Z,25.95
2017-08-08T12:49:19.123Z,25.98
2017-08-08T12:50:28.101Z,26.06
2017-08-08T12:51:37.080Z,26.02
2017-08-08T12:52:46.065Z,25.98
2017-08-08T12:53:55.059Z,26.06
2017-08-08T12:55:04.083Z,25.99
2017-08-08T12:56:13.087Z,26.02
2017-08-08T12:57:22.060Z,26.12
2017-08-08T12:58:31.054Z,26.13
2017-08-08T12:59:40.036Z,26.09
2017-08-08T13:00:49.022Z,25.98
2017-08-08T13:01:58.006Z,26.01
2017-08-08T13:03:06.991Z,26.01
2017-08-08T13:04:15.984Z,26.1
2017-08-08T13:05:24.969Z,26.02
2017-08-08T13:06:33.957Z,26.13
2017-08-08T13:07:42.943Z,26.1
2017-08-08T13:08:51.930Z,25.98
2017-08-08T13:10:00.911Z,26.07
2017-08-08T13:11:09.904Z,26.15
2017-08-08T13:12:18.892Z,26.07
2017-08-08T13:13:27.893Z,26.1
2017-08-08T13:14:36.883Z,26.02
2017-08-08T13:15:45.880Z,26.15
2017-08-08T13:16:54.862Z,26.21
2017-08-08T13:18:03.846Z,26.18
2017-08-08T13:19:12.835Z,26.21
2017-08-08T13:20:21.826Z,26.15
2017-08-08T13:21:30.821Z,26.25
2017-08-08T13:22:39.815Z,26.18
2017-08-08T13:23:48.803Z,26.18
2017-08-08T13:24:57.788Z,26.18
2017-08-08T13:26:06.782Z,26.17
2017-08-08T13:27:15.770Z,26.25
2017-08-08T13:28:24.754Z,26.26
2017-08-08T13:29:33.738Z,26.32
2017-08-08T13:30:42.728Z,26.26
2017-08-08T13:31:51.710Z,26.23
2017-08-08T13:33:00.700Z,26.3
2017-08-08T13:34:09.694Z,26.28
2017-08-08T13:35:18.672Z,26.29
2017-08-08T13:36:27.988Z,26.23
2017-08-08T13:37:36.968Z,26.21
2017-08-08T13:38:45.954Z,26.21
2017-08-08T13:39:55.191Z,26.17
2017-08-08T13:41:04.149Z,26.28
2017-08-08T13:42:13.119Z,26.26
2017-08-08T13:43:22.082Z,26.32
2017-08-08T13:44:31.052Z,26.35
2017-08-08T13:45:40.058Z,26.36
2017-08-08T13:46:49.018Z,26.35
2017-08-08T13:47:57.990Z,26.37
2017-08-08T13:49:06.981Z,26.36
2017-08-08T13:50:16.161Z,26.37
2017-08-08T13:51:25.408Z,26.33
2017-08-08T13:52:34.417Z,26.33
2017-08-08T13:53:43.539Z,26.3
2017-08-08T13:54:52.804Z,26.39
2017-08-08T13:56:01.863Z,26.33
2017-08-08T13:57:10.897Z,26.36
2017-08-08T13:58:20.325Z,26.33
2017-08-08T13:59:29.475Z,26.32
2017-08-08T14:00:38.519Z,26.35
2017-08-08T14:01:47.581Z,26.33
2017-08-08T14:02:56.753Z,26.25
2017-08-08T14:04:05.871Z,26.32
2017-08-08T14:05:14.873Z,26.26
2017-08-08T14:06:24.167Z,26.25
2017-08-08T14:07:33.184Z,26.2
2017-08-08T14:08:42.141Z,26.36
2017-08-08T14:09:51.174Z,26.29
2017-08-08T14:11:00.217Z,26.33
2017-08-08T14:12:09.188Z,26.28
2017-08-08T14:13:18.152Z,26.37
2017-08-08T14:14:27.106Z,26.4
2017-08-08T14:15:36.078Z,26.33
2017-08-08T14:16:45.052Z,26.35
2017-08-08T14:17:54.030Z,26.36
2017-08-08T14:19:02.992Z,26.36
2017-08-08T14:20:11.976Z,26.32
2017-08-08T14:21:20.938Z,26.35
2017-08-08T14:22:29.911Z,26.5
2017-08-08T14:23:38.883Z,26.44
2017-08-08T14:24:47.861Z,26.48
2017-08-08T14:25:56.844Z,26.48
2017-08-08T14:27:05.826Z,26.48
2017-08-08T14:28:14.863Z,26.43
2017-08-08T14:29:23.915Z,26.47
2017-08-08T14:30:32.964Z,26.44
2017-08-08T14:31:41.967Z,26.39
2017-08-08T14:32:50.983Z,26.32
2017-08-08T14:34:00.010Z,26.37
2017-08-08T14:35:09.026Z,26.3
2017-08-08T14:36:18.041Z,26.3
2017-08-08T14:37:27.059Z,26.3
2017-08-08T14:38:36.068Z,26.35
2017-08-08T14:39:45.055Z,26.33
2017-08-08T14:40:54.071Z,26.48
2017-08-08T14:42:03.066Z,26.51
2017-08-08T14:43:12.086Z,26.47
2017-08-08T14:44:21.073Z,26.47
2017-08-08T14:45:30.384Z,26.47
2017-08-08T14:46:39.369Z,26.48
2017-08-08T14:47:48.365Z,26.39
2017-08-08T14:48:57.333Z,26.45
2017-08-08T14:50:06.289Z,26.48
2017-08-08T14:51:15.241Z,26.47
2017-08-08T14:52:24.427Z,26.47
2017-08-08T14:53:33.648Z,26.45
2017-08-08T14:54:42.706Z,26.43
2017-08-08T14:55:51.900Z,26.43
2017-08-08T14:57:01.093Z,26.5